Time;durP1;ratioP1;P1;durP2;ratioP2;P2;SDS_P1;SDS_P2;PMS_P1;PMS_P2;Temp;Humidity;BMP_temperature;BMP_pressure;BME280_temperature;BME280_humidity;BME280_pressure;Samples;Min_cycle;Max_cycle;Signal;HPM_P1;HPM_P2
2023/01/04 00:00:45;;;;;;;5.70;1.65;;;9.40;99.90;;;;;;4979779;28;20026;-83
2023/01/04 00:03:11;;;;;;;9.38;1.70;;;9.40;99.90;;;;;;4979067;28;20301;-84
2023/01/04 00:05:37;;;;;;;7.00;1.70;;;9.40;99.90;;;;;;4995760;28;20034;-84
2023/01/04 00:08:03;;;;;;;7.55;1.60;;;9.40;99.90;;;;;;4979342;28;20034;-84
2023/01/04 00:10:28;;;;;;;6.93;1.67;;;9.40;99.90;;;;;;4979210;28;20045;-83
2023/01/04 00:12:54;;;;;;;7.40;1.70;;;9.40;99.90;;;;;;4979081;28;20039;-83
2023/01/04 00:15:20;;;;;;;9.90;2.40;;;9.40;99.90;;;;;;4979828;28;20034;-83
2023/01/04 00:17:45;;;;;;;10.25;3.30;;;9.40;99.90;;;;;;4996339;28;20025;-83
2023/01/04 00:20:11;;;;;;;7.13;1.95;;;9.40;99.90;;;;;;4995956;28;20398;-84
2023/01/04 00:22:37;;;;;;;6.30;1.90;;;9.40;99.90;;;;;;4980756;28;20528;-83
2023/01/04 00:25:03;;;;;;;7.18;1.70;;;9.30;99.90;;;;;;5009191;28;20014;-83
2023/01/04 00:27:28;;;;;;;8.05;3.10;;;9.30;99.90;;;;;;5007912;28;20026;-82
2023/01/04 00:29:54;;;;;;;11.07;1.90;;;9.30;99.90;;;;;;4983397;28;20034;-83
2023/01/04 00:32:20;;;;;;;8.30;2.13;;;9.30;99.90;;;;;;4999607;28;20038;-84
2023/01/04 00:34:45;;;;;;;5.57;1.67;;;9.30;99.90;;;;;;4983813;28;20037;-83
2023/01/04 00:37:11;;;;;;;11.45;2.13;;;9.30;99.90;;;;;;4984375;28;20045;-82
2023/01/04 00:39:37;;;;;;;9.77;2.63;;;9.30;99.90;;;;;;5001498;28;20033;-82
2023/01/04 00:42:05;;;;;;;16.25;2.33;;;9.30;99.90;;;;;;5000643;28;20017;-82
2023/01/04 00:44:33;;;;;;;9.25;1.83;;;9.30;99.90;;;;;;5017712;28;20030;-83
2023/01/04 00:46:59;;;;;;;6.30;1.90;;;9.30;99.90;;;;;;5025543;28;20072;-82
2023/01/04 00:49:26;;;;;;;12.00;2.80;;;9.20;99.90;;;;;;4994911;28;20034;-82
2023/01/04 00:51:52;;;;;;;7.10;2.17;;;9.20;99.90;;;;;;5027203;28;20034;-81
2023/01/04 00:54:19;;;;;;;6.10;2.13;;;9.30;99.90;;;;;;4986846;28;20026;-84
2023/01/04 00:56:45;;;;;;;6.28;2.08;;;9.20;99.90;;;;;;4999349;28;20104;-82
2023/01/04 00:59:16;;;;;;;8.98;2.25;;;9.20;99.90;;;;;;4982524;28;20044;-82
2023/01/04 01:01:42;;;;;;;9.00;2.70;;;9.20;99.90;;;;;;5015595;28;20105;-83
2023/01/04 01:04:11;;;;;;;8.70;2.33;;;9.20;99.90;;;;;;4998210;28;20018;-83
2023/01/04 01:06:36;;;;;;;8.70;2.10;;;9.20;99.90;;;;;;4982457;28;20462;-83
2023/01/04 01:09:02;;;;;;;11.55;2.78;;;9.20;99.90;;;;;;4982332;28;20419;-82
2023/01/04 01:11:29;;;;;;;7.60;2.20;;;9.20;99.90;;;;;;4998257;28;20028;-84
2023/01/04 01:13:56;;;;;;;4.80;2.00;;;9.20;99.90;;;;;;4981887;28;20089;-82
2023/01/04 01:16:23;;;;;;;7.60;2.20;;;9.10;99.90;;;;;;5015977;28;20034;-83
2023/01/04 01:18:50;;;;;;;7.47;2.28;;;9.10;99.90;;;;;;4998294;28;20478;-83
2023/01/04 01:21:19;;;;;;;8.38;2.17;;;9.20;99.90;;;;;;5015746;28;20058;-83
2023/01/04 01:23:46;;;;;;;5.35;1.88;;;9.20;99.90;;;;;;4998164;28;20394;-83
2023/01/04 01:26:14;;;;;;;9.23;2.10;;;9.20;99.90;;;;;;4982080;28;20494;-82
2023/01/04 01:28:40;;;;;;;6.82;1.85;;;9.20;99.90;;;;;;4997708;28;20062;-83
2023/01/04 01:31:08;;;;;;;5.45;2.13;;;9.20;99.90;;;;;;4981840;28;20116;-82
2023/01/04 01:33:36;;;;;;;5.60;2.20;;;9.20;99.90;;;;;;5015310;28;20018;-83
2023/01/04 01:36:02;;;;;;;7.00;1.90;;;9.20;99.90;;;;;;4998117;28;20052;-83
2023/01/04 01:38:28;;;;;;;8.18;2.22;;;9.20;99.90;;;;;;4997107;28;20084;-82
2023/01/04 01:40:54;;;;;;;9.45;2.20;;;9.20;99.90;;;;;;4981782;28;20022;-82
2023/01/04 01:43:22;;;;;;;4.70;2.15;;;9.20;99.90;;;;;;4998126;28;20486;-82
2023/01/04 01:45:52;;;;;;;4.95;2.00;;;9.20;99.90;;;;;;5015534;28;20033;-83
2023/01/04 01:48:24;;;;;;;5.20;1.95;;;9.20;99.90;;;;;;4997913;28;20041;-82
2023/01/04 01:50:54;;;;;;;5.57;2.03;;;9.20;99.90;;;;;;5015328;28;20105;-82
2023/01/04 01:53:21;;;;;;;4.95;1.70;;;9.20;99.90;;;;;;4997626;28;20025;-82
2023/01/04 01:55:49;;;;;;;5.13;1.75;;;9.20;99.90;;;;;;5015144;28;20026;-82
2023/01/04 01:58:22;;;;;;;5.40;1.60;;;9.30;99.90;;;;;;4998051;28;20125;-82
2023/01/04 02:00:48;;;;;;;8.48;2.42;;;9.30;99.90;;;;;;4997153;28;20021;-82
2023/01/04 02:03:42;;;;;;;4.60;1.80;;;9.40;99.90;;;;;;4981347;28;20477;-83
2023/01/04 02:06:16;;;;;;;5.72;1.80;;;9.40;99.90;;;;;;5015096;28;20022;-82
2023/01/04 02:08:42;;;;;;;6.53;1.98;;;9.40;99.90;;;;;;4997268;28;20026;-83
2023/01/04 02:11:08;;;;;;;4.60;2.10;;;9.40;99.90;;;;;;4980937;28;20033;-82
2023/01/04 02:16:47;;;;;;;5.35;2.00;;;9.40;99.90;;;;;;5015135;28;20092;-82
2023/01/04 02:19:40;;;;;;;4.55;1.83;;;9.50;99.90;;;;;;4997418;28;20447;-82
2023/01/04 02:22:21;;;;;;;6.05;2.10;;;9.50;99.90;;;;;;4997118;28;20054;-83
2023/01/04 02:24:58;;;;;;;5.30;2.13;;;9.60;99.90;;;;;;4997409;28;20455;-82
2023/01/04 02:27:46;;;;;;;6.68;2.30;;;9.60;99.90;;;;;;5014688;28;20043;-82
2023/01/04 02:30:24;;;;;;;5.05;2.30;;;9.60;99.90;;;;;;5014671;28;20034;-82
2023/01/04 02:32:50;;;;;;;6.47;2.50;;;9.60;99.90;;;;;;4997163;28;20033;-82
2023/01/04 02:35:28;;;;;;;4.22;1.88;;;9.60;99.90;;;;;;4997307;28;20378;-83
2023/01/04 02:38:07;;;;;;;6.85;2.33;;;9.60;99.90;;;;;;4996993;28;20084;-83
2023/01/04 02:41:13;;;;;;;7.60;2.20;;;9.60;99.90;;;;;;5014694;28;20036;-83
2023/01/04 02:46:52;;;;;;;4.85;2.30;;;9.60;99.90;;;;;;5013863;28;20556;-83
2023/01/04 02:52:02;;;;;;;7.25;2.20;;;9.70;99.90;;;;;;5014652;28;20136;-82
2023/01/04 02:54:31;;;;;;;4.50;2.17;;;9.60;99.90;;;;;;4981124;28;20117;-82
2023/01/04 02:57:15;;;;;;;3.70;1.77;;;9.70;99.90;;;;;;4997026;28;20029;-82
2023/01/04 02:59:59;;;;;;;2.97;1.90;;;9.70;99.90;;;;;;4996421;28;20038;-83
2023/01/04 03:08:43;;;;;;;2.55;1.70;;;9.80;99.90;;;;;;5013305;28;20563;-84
2023/01/04 03:14:07;;;;;;;4.68;1.73;;;9.80;99.90;;;;;;5013708;28;20024;-83
2023/01/04 03:16:34;;;;;;;2.25;1.50;;;9.90;99.90;;;;;;4996471;28;20030;-85
2023/01/04 03:19:03;;;;;;;4.82;1.90;;;9.90;99.90;;;;;;4980022;28;20062;-83
2023/01/04 03:21:31;;;;;;;4.05;1.95;;;9.90;99.90;;;;;;4980535;28;20085;-83
2023/01/04 03:35:40;;;;;;;3.22;1.75;;;9.90;99.90;;;;;;5014137;28;20037;-83
2023/01/04 03:50:43;;;;;;;2.33;1.50;;;10.10;99.90;;;;;;5013839;28;20041;-81
2023/01/04 03:53:11;;;;;;;2.95;1.60;;;10.20;99.90;;;;;;4994818;28;20049;-83
2023/01/04 03:55:40;;;;;;;4.82;2.00;;;10.10;99.90;;;;;;4995935;28;20488;-82
2023/01/04 03:58:06;;;;;;;4.45;1.63;;;10.20;99.90;;;;;;5013678;28;20032;-82
2023/01/04 04:00:32;;;;;;;4.90;2.10;;;10.20;99.90;;;;;;4981398;28;20026;-82
2023/01/04 04:03:06;;;;;;;3.55;1.85;;;10.20;99.90;;;;;;4999814;28;20022;-82
2023/01/04 04:08:27;;;;;;;4.00;2.28;;;10.30;99.90;;;;;;5017828;28;20096;-83
2023/01/04 04:11:29;;;;;;;4.00;2.10;;;10.30;99.90;;;;;;4984959;28;20040;-82
2023/01/04 04:13:49;;;;;;;3.92;1.88;;;10.30;99.90;;;;;;5017298;28;20390;-82
2023/01/04 04:16:15;;;;;;;4.13;2.28;;;10.30;99.90;;;;;;4984369;28;20117;-81
2023/01/04 04:18:40;;;;;;;3.28;2.20;;;10.30;99.90;;;;;;4986307;28;20038;-84
2023/01/04 04:21:06;;;;;;;4.20;2.30;;;10.40;99.90;;;;;;5002289;28;20061;-80
2023/01/04 04:23:31;;;;;;;4.45;2.17;;;10.40;99.90;;;;;;5007712;28;20037;-80
2023/01/04 04:25:57;;;;;;;7.07;2.60;;;10.40;99.90;;;;;;5040137;28;20026;-82
2023/01/04 04:28:23;;;;;;;5.43;2.33;;;10.50;99.90;;;;;;4985461;28;20030;-81
2023/01/04 04:30:49;;;;;;;4.20;2.10;;;10.50;99.90;;;;;;5010597;28;20082;-86
2023/01/04 04:33:14;;;;;;;3.65;2.13;;;10.50;99.90;;;;;;5023829;28;20037;-80
2023/01/04 04:35:40;;;;;;;3.92;2.28;;;10.60;99.90;;;;;;5026684;28;20455;-80
2023/01/04 04:38:06;;;;;;;6.80;2.20;;;10.60;99.90;;;;;;4983153;28;20103;-80
2023/01/04 04:43:16;;;;;;;4.68;2.38;;;10.60;99.90;;;;;;5017018;28;20040;-83
2023/01/04 04:45:42;;;;;;;4.78;2.45;;;10.70;99.90;;;;;;4999408;28;20113;-82
2023/01/04 04:48:07;;;;;;;3.72;2.65;;;10.70;99.90;;;;;;4999141;28;20060;-83
2023/01/04 04:50:33;;;;;;;5.07;2.80;;;10.70;99.90;;;;;;4982824;28;20069;-83
2023/01/04 04:52:59;;;;;;;5.80;2.58;;;10.70;99.90;;;;;;4982804;28;20026;-83
2023/01/04 04:55:25;;;;;;;5.05;2.50;;;10.80;99.90;;;;;;4982794;28;20026;-83
2023/01/04 04:57:50;;;;;;;7.50;3.35;;;10.80;99.90;;;;;;5016122;28;20018;-83
2023/01/04 05:00:16;;;;;;;4.75;2.58;;;10.80;99.90;;;;;;4998797;28;20180;-83
2023/01/04 05:02:42;;;;;;;3.88;2.42;;;10.80;99.90;;;;;;4982467;28;20033;-82
2023/01/04 05:05:08;;;;;;;3.75;2.50;;;10.80;99.90;;;;;;4998613;28;20506;-83
2023/01/04 05:07:33;;;;;;;5.45;2.67;;;10.90;99.90;;;;;;4982759;28;20121;-83
2023/01/04 05:09:59;;;;;;;4.38;2.58;;;10.90;99.90;;;;;;4998595;28;20462;-83
2023/01/04 05:15:09;;;;;;;6.53;2.90;;;10.90;99.90;;;;;;5001352;28;20040;-83
2023/01/04 05:17:34;;;;;;;4.13;2.70;;;10.90;99.90;;;;;;4982615;28;20022;-83
2023/01/04 05:20:00;;;;;;;5.60;3.13;;;10.90;99.90;;;;;;4982043;28;20064;-83
2023/01/04 05:22:26;;;;;;;4.75;2.50;;;10.90;99.90;;;;;;4982414;28;20046;-83
2023/01/04 05:24:52;;;;;;;4.50;2.92;;;11.00;99.90;;;;;;4982169;28;20034;-84
2023/01/04 05:27:17;;;;;;;4.72;2.80;;;11.00;99.90;;;;;;4982231;28;20041;-83
2023/01/04 05:32:27;;;;;;;6.13;3.10;;;11.00;99.90;;;;;;5001403;28;20121;-83
2023/01/04 05:34:52;;;;;;;5.68;3.17;;;11.00;99.90;;;;;;4981959;28;20053;-82
2023/01/04 05:37:18;;;;;;;5.47;2.95;;;11.00;99.90;;;;;;4998148;28;20115;-83
2023/01/04 05:39:44;;;;;;;5.80;2.97;;;11.00;99.90;;;;;;4981804;28;20502;-84
2023/01/04 05:42:24;;;;;;;5.03;2.50;;;11.00;99.90;;;;;;4981549;28;20056;-83
2023/01/04 05:44:51;;;;;;;7.32;3.22;;;11.00;99.90;;;;;;5001059;28;20030;-83
2023/01/04 05:47:16;;;;;;;6.32;3.05;;;11.00;99.90;;;;;;4998258;28;20037;-83
2023/01/04 05:49:42;;;;;;;6.05;3.28;;;11.00;99.90;;;;;;4997982;28;20034;-83
2023/01/04 05:52:08;;;;;;;7.55;3.40;;;11.00;99.90;;;;;;4997758;28;20029;-83
2023/01/04 05:54:33;;;;;;;6.30;3.50;;;11.00;99.90;;;;;;4997668;28;20489;-83
2023/01/04 05:56:59;;;;;;;8.63;4.03;;;11.00;99.90;;;;;;5015432;28;20030;-84
2023/01/04 05:59:24;;;;;;;7.15;3.30;;;11.10;99.90;;;;;;4981968;28;20065;-84
2023/01/04 06:01:50;;;;;;;7.57;3.85;;;11.10;99.90;;;;;;4981643;28;20520;-83
2023/01/04 06:04:16;;;;;;;4.60;3.00;;;11.10;99.90;;;;;;4997812;28;20033;-83
2023/01/04 06:06:41;;;;;;;4.57;3.22;;;11.10;99.90;;;;;;4981517;28;20088;-83
2023/01/04 06:09:07;;;;;;;6.00;2.92;;;11.10;99.90;;;;;;4980904;28;20033;-83
2023/01/04 06:11:32;;;;;;;6.40;3.25;;;11.10;99.90;;;;;;4997646;28;20022;-83
2023/01/04 06:13:58;;;;;;;7.95;4.07;;;11.20;99.90;;;;;;5014333;28;20378;-84
2023/01/04 06:16:24;;;;;;;5.68;2.78;;;11.10;99.90;;;;;;4997564;28;20026;-83
2023/01/04 06:18:49;;;;;;;6.90;3.20;;;11.10;99.90;;;;;;4997480;28;20026;-83
2023/01/04 06:21:15;;;;;;;7.22;3.20;;;11.20;99.90;;;;;;4987122;28;20050;-82
2023/01/04 06:23:41;;;;;;;6.40;3.38;;;11.10;99.90;;;;;;4977778;28;20394;-82
2023/01/04 06:26:06;;;;;;;4.78;3.03;;;11.20;99.90;;;;;;4961577;28;20031;-82
2023/01/04 06:28:32;;;;;;;4.90;2.95;;;11.20;99.90;;;;;;4977680;28;20038;-83
2023/01/04 06:31:05;;;;;;;5.85;2.92;;;11.20;99.90;;;;;;4977676;28;20031;-84
2023/01/04 06:33:32;;;;;;;6.75;3.55;;;11.20;99.90;;;;;;4977992;28;20113;-83
2023/01/04 06:35:58;;;;;;;7.40;3.35;;;11.20;99.90;;;;;;4961979;28;20037;-87
2023/01/04 06:38:24;;;;;;;4.13;2.50;;;11.20;99.90;;;;;;4962259;28;20031;-83
2023/01/04 06:40:50;;;;;;;9.50;3.67;;;11.20;99.90;;;;;;4978727;28;20375;-83
2023/01/04 06:43:16;;;;;;;5.30;3.53;;;11.30;99.90;;;;;;4981000;28;20028;-83
2023/01/04 06:45:41;;;;;;;5.68;3.63;;;11.30;99.90;;;;;;4961912;28;20117;-83
2023/01/04 06:48:07;;;;;;;8.05;3.13;;;11.30;99.90;;;;;;4977779;28;20065;-83
2023/01/04 06:50:33;;;;;;;6.57;3.00;;;11.30;99.90;;;;;;4995434;28;20076;-82
2023/01/04 06:53:02;;;;;;;6.38;3.63;;;11.30;99.90;;;;;;4978229;28;20031;-84
2023/01/04 06:55:28;;;;;;;7.03;3.03;;;11.30;99.90;;;;;;4961623;28;20058;-83
2023/01/04 06:57:55;;;;;;;6.47;3.38;;;11.30;99.90;;;;;;4961622;28;20150;-81
2023/01/04 07:00:20;;;;;;;5.25;3.15;;;11.40;99.90;;;;;;4960911;28;20034;-83
